createdAt,value
2023-05-17T04:31:32.940Z,20.4831
2023-05-17T04:32:34.973Z,20.3542
2023-05-17T04:33:37.197Z,20.3738
2023-05-17T04:34:39.026Z,20.3830
2023-05-17T04:35:41.092Z,20.3984
2023-05-17T04:36:43.118Z,20.4208
2023-05-17T04:37:45.194Z,20.4375
2023-05-17T04:38:47.303Z,20.4486
2023-05-17T04:39:49.289Z,20.4588
2023-05-17T04:40:51.326Z,20.4835
2023-05-17T04:41:53.392Z,20.5068
2023-05-17T04:42:55.555Z,20.5160
2023-05-17T04:43:57.489Z,20.5092
2023-05-17T04:44:59.514Z,20.5156
2023-05-17T04:46:01.561Z,20.5349
2023-05-17T04:47:03.652Z,20.5756
2023-05-17T04:48:05.688Z,20.5963
2023-05-17T04:49:07.876Z,20.5987
2023-05-17T04:50:09.755Z,20.6020
2023-05-17T04:51:11.812Z,20.6163
2023-05-17T04:52:13.870Z,20.6341
2023-05-17T04:53:15.894Z,20.6480
2023-05-17T04:54:17.970Z,20.6601
2023-05-17T04:55:20.122Z,20.6733
2023-05-17T04:56:22.043Z,20.6788
2023-05-17T04:57:24.092Z,20.6899
2023-05-17T04:58:26.134Z,20.7131
2023-05-17T04:59:28.223Z,20.7236
2023-05-17T05:00:30.279Z,20.7355
2023-05-17T05:01:32.307Z,20.7452
2023-05-17T05:02:34.390Z,20.7591
2023-05-17T05:03:36.440Z,20.7707
2023-05-17T05:04:38.471Z,20.7738
2023-05-17T05:05:40.495Z,20.7738
2023-05-17T05:06:42.699Z,20.7777
2023-05-17T05:07:44.583Z,20.7856
2023-05-17T05:08:46.658Z,20.7977
2023-05-17T05:09:48.721Z,20.8096
2023-05-17T05:10:50.734Z,20.8040
2023-05-17T05:11:52.782Z,20.7792
2023-05-17T05:12:55.027Z,20.7591
2023-05-17T05:13:56.907Z,20.7645
2023-05-17T05:15:00.298Z,20.7782
2023-05-17T05:16:00.979Z,20.7815
2023-05-17T05:17:03.111Z,20.7822
2023-05-17T05:18:05.305Z,20.7962
2023-05-17T05:19:07.422Z,20.8037
2023-05-17T05:20:09.227Z,20.8080
2023-05-17T05:21:11.233Z,20.8117
2023-05-17T05:22:13.319Z,20.8195
2023-05-17T05:23:15.358Z,20.8180
2023-05-17T05:24:17.393Z,20.8228
2023-05-17T05:25:19.479Z,20.8241
2023-05-17T05:26:21.528Z,20.8179
2023-05-17T05:27:23.543Z,20.7909
2023-05-17T05:28:25.590Z,20.7816
2023-05-17T05:29:27.660Z,20.7768
2023-05-17T05:30:29.709Z,20.7761
2023-05-17T05:31:31.743Z,20.7722
2023-05-17T05:32:33.946Z,20.7877
2023-05-17T05:33:36.086Z,20.7995
2023-05-17T05:34:37.917Z,20.8000
2023-05-17T05:35:39.977Z,20.8088
2023-05-17T05:36:42.090Z,20.8255
2023-05-17T05:37:44.080Z,20.8428
2023-05-17T05:38:46.161Z,20.8634
2023-05-17T05:39:48.170Z,20.8875
2023-05-17T05:40:50.241Z,20.9175
2023-05-17T05:41:52.338Z,20.9217
2023-05-17T05:42:54.335Z,20.9077
2023-05-17T05:43:56.403Z,20.9034
2023-05-17T05:44:58.440Z,20.9525
2023-05-17T05:46:00.515Z,21.0179
2023-05-17T05:47:02.577Z,21.0599
2023-05-17T05:48:04.697Z,21.0886
2023-05-17T05:49:06.806Z,21.1112
2023-05-17T05:50:08.699Z,21.1394
2023-05-17T05:51:10.750Z,21.1713
2023-05-17T05:52:12.802Z,21.2032
2023-05-17T05:53:19.490Z,21.2366
2023-05-17T05:54:17.130Z,21.2496
2023-05-17T05:55:18.961Z,21.2560
2023-05-17T05:56:21.033Z,21.2419
2023-05-17T05:57:23.113Z,21.2281
2023-05-17T05:58:25.098Z,21.2219
2023-05-17T05:59:27.178Z,21.2160
2023-05-17T06:00:29.522Z,21.2016
2023-05-17T06:01:31.269Z,21.2142
2023-05-17T06:02:33.391Z,21.2323
2023-05-17T06:03:35.388Z,21.2366
2023-05-17T06:04:45.166Z,21.2339
2023-05-17T06:05:39.552Z,21.2353
2023-05-17T06:06:41.710Z,21.2523
2023-05-17T06:07:43.579Z,21.2799
2023-05-17T06:08:45.679Z,21.2953
2023-05-17T06:09:47.669Z,21.3221
2023-05-17T06:10:49.729Z,21.3519
2023-05-17T06:11:51.790Z,21.3703
2023-05-17T06:12:53.849Z,21.3714
2023-05-17T06:13:55.872Z,21.3711
2023-05-17T06:14:57.922Z,21.3539
2023-05-17T06:15:59.984Z,21.3562
2023-05-17T06:17:02.061Z,21.3338
2023-05-17T06:18:04.146Z,21.3103
2023-05-17T06:19:06.277Z,21.2899
2023-05-17T06:20:08.222Z,21.2874
2023-05-17T06:21:10.215Z,21.2912
2023-05-17T06:22:12.290Z,21.2777
2023-05-17T06:23:14.336Z,21.2639
2023-05-17T06:24:16.375Z,21.2564
2023-05-17T06:25:18.477Z,21.2409
2023-05-17T06:26:20.496Z,21.2441
2023-05-17T06:27:22.571Z,21.2721
2023-05-17T06:28:24.564Z,21.2791
2023-05-17T06:29:26.623Z,21.2892
2023-05-17T06:30:28.902Z,21.2974
2023-05-17T06:31:30.761Z,21.2956
2023-05-17T06:32:32.798Z,21.3111
2023-05-17T06:33:34.966Z,21.2837
2023-05-17T06:34:36.926Z,21.2627
2023-05-17T06:35:47.892Z,21.2567
2023-05-17T06:36:41.041Z,21.2512
2023-05-17T06:37:43.043Z,21.2457
2023-05-17T06:38:45.094Z,21.2347
2023-05-17T06:39:55.700Z,21.2277
2023-05-17T06:40:49.179Z,21.2529
2023-05-17T06:41:51.247Z,21.2820
2023-05-17T06:42:53.282Z,21.2672
2023-05-17T06:43:55.325Z,21.2266
2023-05-17T06:44:57.386Z,21.2015
2023-05-17T06:45:59.413Z,21.1847
2023-05-17T06:47:01.518Z,21.1798
2023-05-17T06:48:03.622Z,21.2084
2023-05-17T06:49:05.691Z,21.1982
2023-05-17T06:50:07.642Z,21.1819
2023-05-17T06:51:09.749Z,21.2309
2023-05-17T06:52:11.720Z,21.2551
2023-05-17T06:53:13.791Z,21.2432
2023-05-17T06:54:15.823Z,21.2226
2023-05-17T06:55:17.885Z,21.2281
2023-05-17T06:56:19.984Z,21.1943
2023-05-17T06:57:22.860Z,21.2188
2023-05-17T06:58:24.018Z,21.2746
2023-05-17T06:59:26.092Z,21.3120
2023-05-17T07:00:28.470Z,21.3193
2023-05-17T07:01:30.297Z,21.2973
2023-05-17T07:02:34.432Z,21.2728
2023-05-17T07:03:34.420Z,21.2469
2023-05-17T07:04:36.364Z,21.2259
2023-05-17T07:05:38.389Z,21.1927
2023-05-17T07:06:40.622Z,21.1807
2023-05-17T07:07:42.508Z,21.1916
2023-05-17T07:08:44.537Z,21.1951
2023-05-17T07:09:46.705Z,21.1935
2023-05-17T07:10:48.702Z,21.2235
2023-05-17T07:11:50.705Z,21.2241
2023-05-17T07:12:52.890Z,21.2062
2023-05-17T07:13:54.853Z,21.2127
2023-05-17T07:14:57.001Z,21.2270
2023-05-17T07:15:58.904Z,21.2363
2023-05-17T07:17:00.977Z,21.2492
2023-05-17T07:18:03.344Z,21.2669
2023-05-17T07:19:05.315Z,21.2796
2023-05-17T07:20:07.207Z,21.2626
2023-05-17T07:21:09.166Z,21.2189
2023-05-17T07:22:11.245Z,21.2188
2023-05-17T07:23:13.317Z,21.2233
2023-05-17T07:24:15.359Z,21.2166
2023-05-17T07:25:17.385Z,21.1940
2023-05-17T07:26:19.461Z,21.1715
2023-05-17T07:27:21.475Z,21.1723
2023-05-17T07:28:23.587Z,21.2255
2023-05-17T07:29:25.577Z,21.2564
2023-05-17T07:30:27.777Z,21.2564
2023-05-17T07:31:29.703Z,21.2507
2023-05-17T07:32:31.819Z,21.2280
2023-05-17T07:33:33.810Z,21.2186
2023-05-17T07:34:35.955Z,21.2134
2023-05-17T07:35:37.911Z,21.2272
2023-05-17T07:36:40.055Z,21.2243
2023-05-17T07:37:42.042Z,21.2317
2023-05-17T07:38:44.058Z,21.2384
2023-05-17T07:39:46.113Z,21.2208
2023-05-17T07:40:48.280Z,21.2553
2023-05-17T07:41:50.235Z,21.2440
2023-05-17T07:42:52.253Z,21.2236
2023-05-17T07:43:54.348Z,21.2585
2023-05-17T07:44:56.364Z,21.2904
2023-05-17T07:45:58.408Z,21.3134
2023-05-17T07:47:00.545Z,21.3167
2023-05-17T07:48:02.625Z,21.2987
2023-05-17T07:49:04.742Z,21.2811
2023-05-17T07:50:06.657Z,21.2432
2023-05-17T07:51:08.680Z,21.2431
2023-05-17T07:52:10.700Z,21.2522
2023-05-17T07:53:12.784Z,21.2572
2023-05-17T07:54:14.808Z,21.2532
2023-05-17T07:55:17.188Z,21.2562
2023-05-17T07:56:18.995Z,21.2608
2023-05-17T07:57:20.960Z,21.2633
2023-05-17T07:58:23.022Z,21.2972
2023-05-17T07:59:25.066Z,21.3268
2023-05-17T08:00:27.134Z,21.3526
2023-05-17T08:01:29.174Z,21.3923
2023-05-17T08:02:31.314Z,21.3963
2023-05-17T08:03:33.251Z,21.3629
2023-05-17T08:04:35.381Z,21.3799
2023-05-17T08:05:37.404Z,21.4204
2023-05-17T08:06:39.408Z,21.4197
2023-05-17T08:07:41.529Z,21.3857
2023-05-17T08:08:43.557Z,21.3366
2023-05-17T08:09:45.613Z,21.3239
2023-05-17T08:10:47.633Z,21.3528
2023-05-17T08:11:49.674Z,21.3722
2023-05-17T08:12:51.722Z,21.3898
2023-05-17T08:13:53.856Z,21.4133
2023-05-17T08:14:55.811Z,21.4139
2023-05-17T08:16:05.103Z,21.3890
2023-05-17T08:16:59.928Z,21.3293
2023-05-17T08:18:04.523Z,21.3009
2023-05-17T08:19:04.176Z,21.2829
2023-05-17T08:20:06.194Z,21.2787
2023-05-17T08:21:08.243Z,21.2805
2023-05-17T08:22:10.212Z,21.2828
2023-05-17T08:23:12.283Z,21.2876
2023-05-17T08:24:14.359Z,21.2737
2023-05-17T08:25:16.411Z,21.2729
2023-05-17T08:26:18.444Z,21.2811
2023-05-17T08:27:20.435Z,21.2737
2023-05-17T08:28:22.497Z,21.2353
2023-05-17T08:29:24.572Z,21.2598
2023-05-17T08:30:29.021Z,21.2857
2023-05-17T08:31:28.630Z,21.2902
2023-05-17T08:32:30.767Z,21.3105
2023-05-17T08:33:32.835Z,21.3292
2023-05-17T08:34:34.864Z,21.3507
2023-05-17T08:35:36.896Z,21.3472
2023-05-17T08:36:38.982Z,21.3491
2023-05-17T08:37:41.334Z,21.3645
2023-05-17T08:38:43.066Z,21.3716
2023-05-17T08:39:45.152Z,21.3711
2023-05-17T08:40:47.152Z,21.3711
2023-05-17T08:41:49.213Z,21.3059
2023-05-17T08:42:51.296Z,21.2666
2023-05-17T08:43:53.314Z,21.2573
2023-05-17T08:44:55.356Z,21.2494
2023-05-17T08:45:57.478Z,21.2436
2023-05-17T08:46:59.474Z,21.2407
2023-05-17T08:48:01.717Z,21.2229
2023-05-17T08:49:03.665Z,21.1795
2023-05-17T08:50:05.700Z,21.1561
2023-05-17T08:51:07.662Z,21.1261
2023-05-17T08:52:09.758Z,21.1217
2023-05-17T08:53:11.827Z,21.1404
2023-05-17T08:54:13.810Z,21.1612
2023-05-17T08:55:16.000Z,21.1704
2023-05-17T08:56:18.052Z,21.1640
2023-05-17T08:57:19.969Z,21.1619
2023-05-17T08:58:22.054Z,21.1621
2023-05-17T08:59:24.134Z,21.1749
2023-05-17T09:00:26.245Z,21.1917
2023-05-17T09:01:29.895Z,21.1979
2023-05-17T09:02:30.319Z,21.2221
2023-05-17T09:03:32.465Z,21.2708
2023-05-17T09:04:34.342Z,21.3029
2023-05-17T09:05:36.741Z,21.3439
2023-05-17T09:06:38.512Z,21.3809
2023-05-17T09:07:40.502Z,21.4214
2023-05-17T09:08:42.584Z,21.4459
2023-05-17T09:09:44.612Z,21.4387
2023-05-17T09:10:46.724Z,21.4017
2023-05-17T09:11:48.699Z,21.3786
2023-05-17T09:12:50.848Z,21.3767
2023-05-17T09:13:52.820Z,21.3608
2023-05-17T09:14:54.904Z,21.3424
2023-05-17T09:15:56.939Z,21.3358
2023-05-17T09:16:58.974Z,21.3342
2023-05-17T09:18:01.089Z,21.3626
2023-05-17T09:19:03.343Z,21.3613
2023-05-17T09:20:05.168Z,21.3583
2023-05-17T09:21:07.195Z,21.3423
2023-05-17T09:22:09.188Z,21.2859
2023-05-17T09:23:11.260Z,21.2222
2023-05-17T09:24:13.323Z,21.2120
2023-05-17T09:25:15.320Z,21.2190
2023-05-17T09:26:17.405Z,21.2363
2023-05-17T09:27:19.461Z,21.2436
2023-05-17T09:28:21.502Z,21.2596
2023-05-17T09:29:23.583Z,21.2720
2023-05-17T09:30:25.656Z,21.2782
2023-05-17T09:31:27.673Z,21.2872
2023-05-17T09:32:29.746Z,21.3183
2023-05-17T09:33:31.787Z,21.3575
2023-05-17T09:34:33.846Z,21.3681
2023-05-17T09:35:35.855Z,21.3672
2023-05-17T09:36:38.124Z,21.3586
2023-05-17T09:37:40.167Z,21.3738
2023-05-17T09:38:42.031Z,21.3824
2023-05-17T09:39:44.083Z,21.3581
2023-05-17T09:40:46.155Z,21.3763
2023-05-17T09:41:48.565Z,21.3720
2023-05-17T09:42:50.246Z,21.3577
2023-05-17T09:43:52.313Z,21.3233
2023-05-17T09:44:54.435Z,21.2674
2023-05-17T09:45:56.366Z,21.3086
2023-05-17T09:46:58.448Z,21.3579
2023-05-17T09:48:00.552Z,21.3991
2023-05-17T09:49:02.729Z,21.4130
2023-05-17T09:50:04.641Z,21.4288
2023-05-17T09:51:06.618Z,21.4260
2023-05-17T09:52:08.710Z,21.3987
2023-05-17T09:53:10.838Z,21.4017
2023-05-17T09:54:12.786Z,21.3907
2023-05-17T09:55:14.826Z,21.3963
2023-05-17T09:56:17.106Z,21.4028
2023-05-17T09:57:18.951Z,21.3946
2023-05-17T09:58:21.042Z,21.3731
2023-05-17T09:59:23.061Z,21.3472
2023-05-17T10:00:25.117Z,21.3444
2023-05-17T10:01:27.189Z,21.3254
2023-05-17T10:02:29.224Z,21.2907
2023-05-17T10:03:31.426Z,21.2938
2023-05-17T10:04:33.378Z,21.3338
2023-05-17T10:05:35.467Z,21.3545
2023-05-17T10:06:47.536Z,21.3828
2023-05-17T10:07:39.517Z,21.4087
2023-05-17T10:08:41.537Z,21.3955
2023-05-17T10:09:43.773Z,21.3755
2023-05-17T10:10:45.835Z,21.2993
2023-05-17T10:11:47.841Z,21.2603
2023-05-17T10:12:49.847Z,21.2319
2023-05-17T10:13:51.842Z,21.2200
2023-05-17T10:14:53.903Z,21.2248
2023-05-17T10:15:55.998Z,21.2895
2023-05-17T10:16:57.996Z,21.3166
2023-05-17T10:18:00.170Z,21.2974
2023-05-17T10:19:02.145Z,21.2853
2023-05-17T10:20:04.308Z,21.3255
2023-05-17T10:21:06.189Z,21.3474
2023-05-17T10:22:21.761Z,21.3522
2023-05-17T10:23:10.429Z,21.3320
2023-05-17T10:24:12.349Z,21.3405
2023-05-17T10:25:14.979Z,21.3329
2023-05-17T10:26:16.530Z,21.3115
2023-05-17T10:27:18.574Z,21.3314
2023-05-17T10:28:20.856Z,21.4064
2023-05-17T10:29:22.603Z,21.4666
2023-05-17T10:30:24.667Z,21.5198
2023-05-17T10:31:26.694Z,21.5350
2023-05-17T10:32:28.776Z,21.5247
2023-05-17T10:33:31.051Z,21.5085
2023-05-17T10:34:32.885Z,21.5117
2023-05-17T10:35:35.133Z,21.5096
2023-05-17T10:36:36.951Z,21.4881
2023-05-17T10:37:39.013Z,21.4502
2023-05-17T10:38:42.853Z,21.4197
2023-05-17T10:39:43.126Z,21.3650
2023-05-17T10:40:45.131Z,21.3297
2023-05-17T10:41:47.320Z,21.3112
2023-05-17T10:42:49.284Z,21.3629
2023-05-17T10:43:51.289Z,21.4147
2023-05-17T10:44:53.435Z,21.4436
2023-05-17T10:45:55.432Z,21.4137
2023-05-17T10:46:57.481Z,21.4180
2023-05-17T10:48:01.093Z,21.3798
2023-05-17T10:49:01.766Z,21.3913
2023-05-17T10:50:03.610Z,21.4357
2023-05-17T10:51:05.658Z,21.4421
2023-05-17T10:52:07.791Z,21.4026
2023-05-17T10:53:09.760Z,21.3824
2023-05-17T10:54:11.996Z,21.3830
2023-05-17T10:55:13.834Z,21.3622
2023-05-17T10:56:15.928Z,21.3631
2023-05-17T10:57:17.915Z,21.3729
2023-05-17T10:58:20.155Z,21.3474
2023-05-17T10:59:22.250Z,21.3474
2023-05-17T11:00:24.132Z,21.3542
2023-05-17T11:01:26.136Z,21.3433
2023-05-17T11:02:28.241Z,21.3350
2023-05-17T11:03:30.293Z,21.3223
2023-05-17T11:04:32.267Z,21.3197
2023-05-17T11:05:34.360Z,21.3363
2023-05-17T11:06:36.501Z,21.3761
2023-05-17T11:07:38.471Z,21.3915
2023-05-17T11:08:40.453Z,21.3980
2023-05-17T11:09:42.655Z,21.4012
2023-05-17T11:10:44.576Z,21.4246
2023-05-17T11:11:46.621Z,21.4801
2023-05-17T11:12:48.657Z,21.5549
2023-05-17T11:13:50.743Z,21.5555
2023-05-17T11:14:52.759Z,21.5166
2023-05-17T11:15:54.794Z,21.5604
2023-05-17T11:16:58.066Z,21.6403
2023-05-17T11:17:58.987Z,21.6824
2023-05-17T11:19:01.100Z,21.7112
2023-05-17T11:20:03.097Z,21.7598
2023-05-17T11:21:05.160Z,21.7622
2023-05-17T11:22:07.234Z,21.7552
2023-05-17T11:23:09.175Z,21.7678
2023-05-17T11:24:11.219Z,21.8111
2023-05-17T11:25:13.240Z,21.8222
2023-05-17T11:26:16.171Z,21.8146
2023-05-17T11:27:17.361Z,21.8163
2023-05-17T11:28:19.388Z,21.7574
2023-05-17T11:29:21.570Z,21.6768
2023-05-17T11:30:23.508Z,21.6176
2023-05-17T11:31:25.533Z,21.5549
2023-05-17T11:32:27.612Z,21.5514
2023-05-17T11:33:34.021Z,21.5367
2023-05-17T11:34:31.769Z,21.5081
2023-05-17T11:35:33.792Z,21.5179
2023-05-17T11:36:35.811Z,21.5149
2023-05-17T11:37:37.849Z,21.4650
2023-05-17T11:38:39.937Z,21.4179
2023-05-17T11:39:41.941Z,21.4020
2023-05-17T11:40:43.999Z,21.3931
2023-05-17T11:41:46.129Z,21.3993
2023-05-17T11:42:48.097Z,21.4221
2023-05-17T11:43:50.153Z,21.4200
2023-05-17T11:44:52.220Z,21.4294
2023-05-17T11:45:54.537Z,21.4143
2023-05-17T11:46:56.311Z,21.4302
2023-05-17T11:47:58.487Z,21.4256
2023-05-17T11:49:00.428Z,21.4057
2023-05-17T11:50:02.473Z,21.4290
2023-05-17T11:51:04.521Z,21.4912
2023-05-17T11:52:06.588Z,21.5357
2023-05-17T11:53:08.619Z,21.5593
2023-05-17T11:54:10.675Z,21.5590
2023-05-17T11:55:12.700Z,21.5716
2023-05-17T11:56:14.743Z,21.5824
2023-05-17T11:57:16.815Z,21.6119
2023-05-17T11:58:18.938Z,21.6317
2023-05-17T11:59:20.890Z,21.5934
2023-05-17T12:00:22.951Z,21.5956
2023-05-17T12:01:25.013Z,21.5955
2023-05-17T12:02:27.087Z,21.6223
2023-05-17T12:03:29.095Z,21.6349
2023-05-17T12:04:33.295Z,21.6410
2023-05-17T12:05:33.211Z,21.6176
2023-05-17T12:06:35.268Z,21.6182
2023-05-17T12:07:37.330Z,21.5807
2023-05-17T12:08:39.344Z,21.5400
2023-05-17T12:09:41.384Z,21.5370
2023-05-17T12:10:43.448Z,21.5253
2023-05-17T12:11:45.508Z,21.5054
2023-05-17T12:12:47.539Z,21.4978
2023-05-17T12:13:49.582Z,21.5000
2023-05-17T12:14:51.643Z,21.5425
2023-05-17T12:15:53.666Z,21.5601
2023-05-17T12:16:55.735Z,21.5767
2023-05-17T12:17:57.815Z,21.6581
2023-05-17T12:18:59.941Z,21.7510
2023-05-17T12:20:01.944Z,21.8892
2023-05-17T12:21:03.939Z,21.9793
2023-05-17T12:22:05.987Z,21.9697
2023-05-17T12:23:08.042Z,21.9146
2023-05-17T12:24:10.173Z,21.8694
2023-05-17T12:25:12.123Z,21.8344
2023-05-17T12:26:14.189Z,21.7994
2023-05-17T12:27:16.257Z,21.7768
2023-05-17T12:28:18.258Z,21.7670
2023-05-17T12:29:20.336Z,21.7341
2023-05-17T12:30:22.406Z,21.7359
2023-05-17T12:31:24.421Z,21.7451
2023-05-17T12:32:26.594Z,21.8427
2023-05-17T12:33:28.617Z,21.8804
2023-05-17T12:34:30.572Z,21.8641
2023-05-17T12:35:32.617Z,21.8063
2023-05-17T12:36:34.717Z,21.8443
2023-05-17T12:37:36.715Z,21.7781
2023-05-17T12:38:38.801Z,21.6651
2023-05-17T12:39:40.903Z,21.6568
2023-05-17T12:40:43.549Z,21.7089
2023-05-17T12:41:44.981Z,21.7857
2023-05-17T12:42:47.097Z,21.8362
2023-05-17T12:43:49.673Z,21.8421
2023-05-17T12:44:51.128Z,21.8010
2023-05-17T12:45:53.187Z,21.7694
2023-05-17T12:46:55.236Z,21.7235
2023-05-17T12:47:57.390Z,21.7030
2023-05-17T12:48:59.343Z,21.7168
2023-05-17T12:50:01.424Z,21.6624
2023-05-17T12:51:03.459Z,21.6044
2023-05-17T12:52:05.510Z,21.5971
2023-05-17T12:53:07.574Z,21.6037
2023-05-17T12:54:09.610Z,21.5717
2023-05-17T12:55:11.642Z,21.5645
2023-05-17T12:56:13.718Z,21.5373
2023-05-17T12:57:15.859Z,21.5292
2023-05-17T12:58:17.807Z,21.6069
2023-05-17T12:59:19.836Z,21.6511
2023-05-17T13:00:21.909Z,21.6991
2023-05-17T13:01:23.980Z,21.6810
2023-05-17T13:02:26.122Z,21.7130
2023-05-17T13:03:28.411Z,21.7328
2023-05-17T13:04:30.093Z,21.7188
2023-05-17T13:05:32.148Z,21.7046
2023-05-17T13:06:34.199Z,21.6830
2023-05-17T13:07:36.231Z,21.6969
2023-05-17T13:08:38.313Z,21.6993
2023-05-17T13:09:40.329Z,21.6332
2023-05-17T13:10:42.394Z,21.5820
2023-05-17T13:11:44.435Z,21.4674
2023-05-17T13:12:46.495Z,21.4233
2023-05-17T13:13:48.551Z,21.4391
2023-05-17T13:14:50.600Z,21.4506
2023-05-17T13:15:52.646Z,21.4396
2023-05-17T13:16:54.744Z,21.4036
2023-05-17T13:17:56.798Z,21.4192
2023-05-17T13:18:58.869Z,21.4734
2023-05-17T13:20:01.057Z,21.4648
2023-05-17T13:21:02.995Z,21.3954
2023-05-17T13:22:04.938Z,21.4116
2023-05-17T13:23:06.987Z,21.3925
2023-05-17T13:24:09.280Z,21.4064
2023-05-17T13:25:11.113Z,21.4425
2023-05-17T13:26:13.197Z,21.4353
2023-05-17T13:27:15.208Z,21.4101
2023-05-17T13:28:17.246Z,21.4314
2023-05-17T13:29:25.593Z,21.4602
2023-05-17T13:30:21.395Z,21.4589
2023-05-17T13:31:23.529Z,21.4777
2023-05-17T13:32:25.632Z,21.5394
2023-05-17T13:33:27.623Z,21.6021
2023-05-17T13:34:29.563Z,21.6435
2023-05-17T13:35:31.631Z,21.6520
2023-05-17T13:36:33.757Z,21.6483
2023-05-17T13:37:35.715Z,21.6637
2023-05-17T13:38:37.782Z,21.6580
2023-05-17T13:39:39.842Z,21.5928
2023-05-17T13:40:41.865Z,21.5030
2023-05-17T13:41:43.932Z,21.4500
2023-05-17T13:42:46.021Z,21.4313
2023-05-17T13:43:48.062Z,21.4177
2023-05-17T13:44:50.098Z,21.3974
2023-05-17T13:45:52.239Z,21.4144
2023-05-17T13:46:54.199Z,21.4270
2023-05-17T13:47:56.301Z,21.4612
2023-05-17T13:48:58.370Z,21.4841
2023-05-17T13:50:00.388Z,21.4626
2023-05-17T13:51:02.403Z,21.4666
2023-05-17T13:52:04.493Z,21.4867
2023-05-17T13:53:06.535Z,21.5398
2023-05-17T13:54:08.591Z,21.5994
2023-05-17T13:55:10.810Z,21.6359
2023-05-17T13:56:12.694Z,21.6693
2023-05-17T13:57:14.728Z,21.6977
2023-05-17T13:58:16.777Z,21.7268
2023-05-17T13:59:18.859Z,21.7239
2023-05-17T14:00:21.101Z,21.6995
2023-05-17T14:01:22.931Z,21.6610
2023-05-17T14:02:25.041Z,21.6507
2023-05-17T14:03:27.210Z,21.6312
2023-05-17T14:04:29.096Z,21.6519
2023-05-17T14:05:31.168Z,21.6746
2023-05-17T14:06:33.238Z,21.6398
2023-05-17T14:07:35.248Z,21.6157
2023-05-17T14:08:37.662Z,21.6142
2023-05-17T14:09:39.391Z,21.5671
2023-05-17T14:10:41.466Z,21.5721
2023-05-17T14:11:43.484Z,21.5839
2023-05-17T14:12:45.525Z,21.5815
2023-05-17T14:13:47.528Z,21.5748
2023-05-17T14:14:49.606Z,21.5978
2023-05-17T14:15:51.647Z,21.6667
2023-05-17T14:16:53.726Z,21.6926
2023-05-17T14:17:55.876Z,21.6786
2023-05-17T14:18:57.883Z,21.6599
2023-05-17T14:19:59.869Z,21.6408
2023-05-17T14:21:02.356Z,21.6632
2023-05-17T14:22:03.963Z,21.6939
2023-05-17T14:23:06.012Z,21.6954
2023-05-17T14:24:08.077Z,21.7096
2023-05-17T14:25:10.128Z,21.6956
2023-05-17T14:26:12.167Z,21.7017
2023-05-17T14:27:14.224Z,21.6825
2023-05-17T14:28:16.278Z,21.6915
2023-05-17T14:29:18.386Z,21.7054
2023-05-17T14:30:20.400Z,21.6724
2023-05-17T14:31:22.444Z,21.6742
2023-05-17T14:32:24.571Z,21.6861
2023-05-17T14:33:26.805Z,21.6710
2023-05-17T14:34:28.619Z,21.6276
2023-05-17T14:35:31.132Z,21.6228
2023-05-17T14:36:32.719Z,21.6059
2023-05-17T14:37:34.853Z,21.6149
2023-05-17T14:38:36.807Z,21.6359
2023-05-17T14:39:39.159Z,21.6101
2023-05-17T14:40:40.924Z,21.5991
2023-05-17T14:41:44.872Z,21.6171
2023-05-17T14:42:45.019Z,21.6595
2023-05-17T14:43:47.062Z,21.6679
2023-05-17T14:44:49.139Z,21.6542
2023-05-17T14:45:51.321Z,21.6538
2023-05-17T14:46:53.223Z,21.6475
2023-05-17T14:47:55.352Z,21.6375
2023-05-17T14:48:57.369Z,21.6352
2023-05-17T14:49:59.427Z,21.6408
2023-05-17T14:51:01.445Z,21.6332
2023-05-17T14:52:03.512Z,21.6170
2023-05-17T14:53:05.554Z,21.6065
2023-05-17T14:54:07.605Z,21.5814
2023-05-17T14:55:09.635Z,21.5881
2023-05-17T14:56:11.693Z,21.6034
2023-05-17T14:57:13.746Z,21.6194
2023-05-17T14:58:15.775Z,21.6183
2023-05-17T14:59:17.907Z,21.6189
2023-05-17T15:00:19.922Z,21.6123
2023-05-17T15:01:22.008Z,21.6282
2023-05-17T15:02:24.001Z,21.5769
2023-05-17T15:03:26.162Z,21.5598
2023-05-17T15:04:28.287Z,21.5803
2023-05-17T15:05:30.348Z,21.6090
2023-05-17T15:06:32.320Z,21.5950
2023-05-17T15:07:34.265Z,21.5781
2023-05-17T15:08:36.340Z,21.5107
2023-05-17T15:09:38.363Z,21.4297
2023-05-17T15:10:40.397Z,21.3802
2023-05-17T15:11:42.490Z,21.3499
2023-05-17T15:12:44.552Z,21.3741
2023-05-17T15:13:46.643Z,21.4206
2023-05-17T15:14:48.614Z,21.4526
2023-05-17T15:15:50.710Z,21.4769
2023-05-17T15:16:52.815Z,21.4873
2023-05-17T15:17:54.867Z,21.4742
2023-05-17T15:18:57.702Z,21.5048
2023-05-17T15:19:59.130Z,21.5378
2023-05-17T15:21:00.957Z,21.5381
2023-05-17T15:22:03.017Z,21.5895
2023-05-17T15:23:05.055Z,21.6113
2023-05-17T15:24:07.118Z,21.5677
2023-05-17T15:25:09.154Z,21.5452
2023-05-17T15:26:11.196Z,21.5222
2023-05-17T15:27:13.331Z,21.4805
2023-05-17T15:28:15.285Z,21.4532
2023-05-17T15:29:17.379Z,21.4503
2023-05-17T15:30:19.373Z,21.4777
2023-05-17T15:31:21.431Z,21.4864
2023-05-17T15:32:23.532Z,21.4847
2023-05-17T15:33:25.694Z,21.4776
2023-05-17T15:34:27.571Z,21.4757
2023-05-17T15:35:29.916Z,21.4499
2023-05-17T15:36:31.693Z,21.4636
2023-05-17T15:37:33.758Z,21.4647
2023-05-17T15:38:35.912Z,21.4856
2023-05-17T15:39:37.865Z,21.5087
2023-05-17T15:40:39.918Z,21.4889
2023-05-17T15:41:41.985Z,21.4550
2023-05-17T15:42:44.039Z,21.4069
2023-05-17T15:43:46.065Z,21.4174
2023-05-17T15:44:48.126Z,21.3830
2023-05-17T15:45:50.349Z,21.3567
2023-05-17T15:46:52.258Z,21.3841
2023-05-17T15:47:54.289Z,21.4049
2023-05-17T15:48:56.356Z,21.3868
2023-05-17T15:49:58.366Z,21.3640
2023-05-17T15:51:00.480Z,21.3558
2023-05-17T15:52:02.514Z,21.3383
2023-05-17T15:53:04.626Z,21.3619
2023-05-17T15:54:06.600Z,21.3693
2023-05-17T15:55:08.640Z,21.3176
2023-05-17T15:56:10.695Z,21.3075
2023-05-17T15:57:12.725Z,21.2896
2023-05-17T15:58:14.804Z,21.3167
2023-05-17T15:59:17.052Z,21.3562
2023-05-17T16:00:18.942Z,21.4120
2023-05-17T16:01:20.940Z,21.4633
2023-05-17T16:02:23.031Z,21.5136
2023-05-17T16:03:25.059Z,21.5294
2023-05-17T16:04:27.138Z,21.5387
2023-05-17T16:05:29.354Z,21.5417
2023-05-17T16:06:31.220Z,21.5395
2023-05-17T16:07:33.457Z,21.5369
2023-05-17T16:08:35.334Z,21.5641
2023-05-17T16:09:37.374Z,21.5958
2023-05-17T16:10:39.419Z,21.6157
2023-05-17T16:11:41.500Z,21.6350
2023-05-17T16:12:43.573Z,21.6279
2023-05-17T16:13:45.587Z,21.5981
2023-05-17T16:14:47.626Z,21.5786
2023-05-17T16:15:49.761Z,21.5461
2023-05-17T16:16:51.731Z,21.5497
2023-05-17T16:17:53.897Z,21.5719
2023-05-17T16:18:55.938Z,21.5566
2023-05-17T16:19:58.098Z,21.5093
2023-05-17T16:20:59.979Z,21.4824
2023-05-17T16:22:01.999Z,21.4791
2023-05-17T16:23:04.095Z,21.4626
2023-05-17T16:24:06.144Z,21.4324
2023-05-17T16:25:08.143Z,21.3645
2023-05-17T16:26:10.241Z,21.3266
2023-05-17T16:27:12.278Z,21.2819
2023-05-17T16:28:14.395Z,21.2770
2023-05-17T16:29:16.360Z,21.2660
2023-05-17T16:30:18.417Z,21.2868
2023-05-17T16:31:20.542Z,21.3184
2023-05-17T16:32:22.632Z,21.3224
2023-05-17T16:33:24.764Z,21.3458
2023-05-17T16:34:26.650Z,21.3870
2023-05-17T16:35:28.834Z,21.4177
2023-05-17T16:36:30.812Z,21.4059
2023-05-17T16:37:32.916Z,21.3519
2023-05-17T16:38:34.895Z,21.2822
2023-05-17T16:39:36.898Z,21.2499
2023-05-17T16:40:39.132Z,21.1666
2023-05-17T16:41:41.030Z,21.1684
2023-05-17T16:42:43.069Z,21.1461
2023-05-17T16:43:45.210Z,21.1523
2023-05-17T16:44:47.390Z,21.1943
2023-05-17T16:45:49.320Z,21.2308
2023-05-17T16:46:51.387Z,21.2776
2023-05-17T16:47:53.448Z,21.3338
2023-05-17T16:48:55.675Z,21.3653
2023-05-17T16:49:57.739Z,21.3724
2023-05-17T16:50:59.588Z,21.4014
2023-05-17T16:52:01.832Z,21.4114
2023-05-17T16:53:03.668Z,21.3782
2023-05-17T16:54:05.805Z,21.3308
2023-05-17T16:55:08.025Z,21.2990
2023-05-17T16:56:10.064Z,21.3199
2023-05-17T16:57:11.882Z,21.3531
2023-05-17T16:58:13.915Z,21.3769
2023-05-17T16:59:15.987Z,21.3378
2023-05-17T17:00:18.050Z,21.2966
2023-05-17T17:01:20.101Z,21.2589